Terminal Aerodrome Forecast
Issued by NWS

Home | Current Version | Previous Version | Text Only | Print | Product List | Glossary On
Versions: 1 2 3 4 5 6 7 8 9 10 11 12 13 14 15 16
798
FTUS41 KPHI 280521
TAFPNE
TAF
KPNE 280521Z 2806/0106 00000KT P6SM BKN100
     FM281800 18006KT P6SM BKN250
     FM282000 19006KT P6SM BKN090
     FM010200 18005KT 3SM -SHRA BR OVC015
     FM010400 19005KT 2SM -SHRA BR OVC005=

USA.gov is the U.S. government's official web portal to all federal, state and local government web resources and services.